sensor_id;sensor_type;location;lat;lon;timestamp;temperature;humidity
25320;DHT22;13256;49.012;8.610;2022-08-19T00:00:20;22.10;99.90
25320;DHT22;13256;49.012;8.610;2022-08-19T00:02:50;22.10;99.90
25320;DHT22;13256;49.012;8.610;2022-08-19T00:05:19;22.00;99.90
25320;DHT22;13256;49.012;8.610;2022-08-19T00:07:46;22.00;99.90
25320;DHT22;13256;49.012;8.610;2022-08-19T00:10:23;22.00;99.90
25320;DHT22;13256;49.012;8.610;2022-08-19T00:12:51;22.00;99.90
25320;DHT22;13256;49.012;8.610;2022-08-19T00:15:20;22.00;99.90
25320;DHT22;13256;49.012;8.610;2022-08-19T00:17:47;22.00;99.90
25320;DHT22;13256;49.012;8.610;2022-08-19T00:20:17;22.00;99.90
25320;DHT22;13256;49.012;8.610;2022-08-19T00:22:48;22.00;99.90
25320;DHT22;13256;49.012;8.610;2022-08-19T00:25:18;22.00;99.90
25320;DHT22;13256;49.012;8.610;2022-08-19T00:27:57;22.00;99.90
25320;DHT22;13256;49.012;8.610;2022-08-19T00:30:25;21.90;99.90
25320;DHT22;13256;49.012;8.610;2022-08-19T00:32:55;21.90;99.90
25320;DHT22;13256;49.012;8.610;2022-08-19T00:35:22;21.90;99.90
25320;DHT22;13256;49.012;8.610;2022-08-19T00:37:49;22.00;99.90
25320;DHT22;13256;49.012;8.610;2022-08-19T00:40:18;22.00;99.90
25320;DHT22;13256;49.012;8.610;2022-08-19T00:42:48;22.00;99.90
25320;DHT22;13256;49.012;8.610;2022-08-19T00:45:19;22.00;99.90
25320;DHT22;13256;49.012;8.610;2022-08-19T00:47:46;22.00;99.90
25320;DHT22;13256;49.012;8.610;2022-08-19T00:50:15;22.00;99.90
25320;DHT22;13256;49.012;8.610;2022-08-19T00:52:49;22.00;99.90
25320;DHT22;13256;49.012;8.610;2022-08-19T00:55:19;22.00;99.90
25320;DHT22;13256;49.012;8.610;2022-08-19T00:57:54;22.00;99.90
25320;DHT22;13256;49.012;8.610;2022-08-19T01:03:13;22.00;99.90
25320;DHT22;13256;49.012;8.610;2022-08-19T01:08:12;21.90;99.90
25320;DHT22;13256;49.012;8.610;2022-08-19T01:13:37;21.90;99.90
25320;DHT22;13256;49.012;8.610;2022-08-19T01:16:19;21.90;99.90
25320;DHT22;13256;49.012;8.610;2022-08-19T01:21:31;21.80;99.90
25320;DHT22;13256;49.012;8.610;2022-08-19T01:26:46;21.60;99.90
25320;DHT22;13256;49.012;8.610;2022-08-19T01:29:16;21.60;99.90
25320;DHT22;13256;49.012;8.610;2022-08-19T01:31:48;21.60;99.90
25320;DHT22;13256;49.012;8.610;2022-08-19T01:34:20;21.60;99.90
25320;DHT22;13256;49.012;8.610;2022-08-19T01:39:56;21.60;99.90
25320;DHT22;13256;49.012;8.610;2022-08-19T01:42:23;21.70;99.90
25320;DHT22;13256;49.012;8.610;2022-08-19T01:44:57;21.70;99.90
25320;DHT22;13256;49.012;8.610;2022-08-19T01:47:29;21.70;99.90
25320;DHT22;13256;49.012;8.610;2022-08-19T01:49:55;21.70;99.90
25320;DHT22;13256;49.012;8.610;2022-08-19T01:52:25;21.70;99.90
25320;DHT22;13256;49.012;8.610;2022-08-19T01:57:30;21.70;99.90
25320;DHT22;13256;49.012;8.610;2022-08-19T02:00:04;21.70;99.90
25320;DHT22;13256;49.012;8.610;2022-08-19T02:05:35;21.60;99.90
25320;DHT22;13256;49.012;8.610;2022-08-19T02:08:03;21.60;99.90
25320;DHT22;13256;49.012;8.610;2022-08-19T02:10:31;21.60;99.90
25320;DHT22;13256;49.012;8.610;2022-08-19T02:13:02;21.60;99.90
25320;DHT22;13256;49.012;8.610;2022-08-19T02:15:55;21.60;99.90
25320;DHT22;13256;49.012;8.610;2022-08-19T02:18:22;21.60;99.90
25320;DHT22;13256;49.012;8.610;2022-08-19T02:20:54;21.60;99.90
25320;DHT22;13256;49.012;8.610;2022-08-19T02:23:21;21.60;99.90
25320;DHT22;13256;49.012;8.610;2022-08-19T02:26:16;21.60;99.90
25320;DHT22;13256;49.012;8.610;2022-08-19T02:42:47;21.50;99.90
25320;DHT22;13256;49.012;8.610;2022-08-19T02:45:15;21.50;99.90
25320;DHT22;13256;49.012;8.610;2022-08-19T02:47:42;21.50;99.90
25320;DHT22;13256;49.012;8.610;2022-08-19T02:50:09;21.50;99.90
25320;DHT22;13256;49.012;8.610;2022-08-19T02:52:36;21.50;99.90
25320;DHT22;13256;49.012;8.610;2022-08-19T02:55:06;21.50;99.90
25320;DHT22;13256;49.012;8.610;2022-08-19T02:57:33;21.40;99.90
25320;DHT22;13256;49.012;8.610;2022-08-19T03:00:00;21.40;99.90
25320;DHT22;13256;49.012;8.610;2022-08-19T03:05:03;21.40;99.90
25320;DHT22;13256;49.012;8.610;2022-08-19T03:07:30;21.40;99.90
25320;DHT22;13256;49.012;8.610;2022-08-19T03:10:00;21.40;99.90
25320;DHT22;13256;49.012;8.610;2022-08-19T03:12:36;21.40;99.90
25320;DHT22;13256;49.012;8.610;2022-08-19T03:15:07;21.40;99.90
25320;DHT22;13256;49.012;8.610;2022-08-19T03:17:36;21.30;99.90
25320;DHT22;13256;49.012;8.610;2022-08-19T03:20:04;21.30;99.90
25320;DHT22;13256;49.012;8.610;2022-08-19T03:22:39;21.30;99.90
25320;DHT22;13256;49.012;8.610;2022-08-19T03:30:31;21.30;99.90
25320;DHT22;13256;49.012;8.610;2022-08-19T03:35:38;21.20;99.90
25320;DHT22;13256;49.012;8.610;2022-08-19T03:38:11;21.20;99.90
25320;DHT22;13256;49.012;8.610;2022-08-19T03:47:11;21.20;99.90
25320;DHT22;13256;49.012;8.610;2022-08-19T03:49:42;21.20;99.90
25320;DHT22;13256;49.012;8.610;2022-08-19T03:58:25;21.10;99.90
25320;DHT22;13256;49.012;8.610;2022-08-19T04:03:36;21.10;99.90
25320;DHT22;13256;49.012;8.610;2022-08-19T04:08:45;21.10;99.90
25320;DHT22;13256;49.012;8.610;2022-08-19T04:11:17;21.00;99.90
25320;DHT22;13256;49.012;8.610;2022-08-19T04:13:45;21.00;99.90
25320;DHT22;13256;49.012;8.610;2022-08-19T04:16:12;20.90;99.90
25320;DHT22;13256;49.012;8.610;2022-08-19T04:18:41;20.90;99.90
25320;DHT22;13256;49.012;8.610;2022-08-19T04:23:52;20.80;99.90
25320;DHT22;13256;49.012;8.610;2022-08-19T04:26:25;20.80;99.90
25320;DHT22;13256;49.012;8.610;2022-08-19T04:28:55;20.80;99.90
25320;DHT22;13256;49.012;8.610;2022-08-19T04:34:44;20.80;99.90
25320;DHT22;13256;49.012;8.610;2022-08-19T04:37:39;20.80;99.90
25320;DHT22;13256;49.012;8.610;2022-08-19T04:40:08;20.80;99.90
25320;DHT22;13256;49.012;8.610;2022-08-19T04:45:28;20.80;99.90
25320;DHT22;13256;49.012;8.610;2022-08-19T05:00:16;20.90;99.90
25320;DHT22;13256;49.012;8.610;2022-08-19T05:02:51;20.90;99.90
25320;DHT22;13256;49.012;8.610;2022-08-19T05:05:24;21.00;99.90
25320;DHT22;13256;49.012;8.610;2022-08-19T05:13:52;21.00;99.90
25320;DHT22;13256;49.012;8.610;2022-08-19T05:18:52;21.00;99.90
25320;DHT22;13256;49.012;8.610;2022-08-19T05:25:11;21.00;99.90
25320;DHT22;13256;49.012;8.610;2022-08-19T05:27:41;21.00;99.90
25320;DHT22;13256;49.012;8.610;2022-08-19T05:33:08;21.00;99.90
25320;DHT22;13256;49.012;8.610;2022-08-19T05:35:49;21.00;99.90
25320;DHT22;13256;49.012;8.610;2022-08-19T05:43:44;20.90;99.90
25320;DHT22;13256;49.012;8.610;2022-08-19T05:49:21;21.00;99.90
25320;DHT22;13256;49.012;8.610;2022-08-19T05:51:55;21.00;99.90
25320;DHT22;13256;49.012;8.610;2022-08-19T05:54:24;21.10;99.90
25320;DHT22;13256;49.012;8.610;2022-08-19T05:57:27;21.10;99.90
25320;DHT22;13256;49.012;8.610;2022-08-19T05:59:55;21.10;99.90
25320;DHT22;13256;49.012;8.610;2022-08-19T06:02:50;21.10;99.90
25320;DHT22;13256;49.012;8.610;2022-08-19T06:05:20;21.10;99.90
25320;DHT22;13256;49.012;8.610;2022-08-19T06:07:47;21.10;99.90
25320;DHT22;13256;49.012;8.610;2022-08-19T06:10:18;21.20;99.90
25320;DHT22;13256;49.012;8.610;2022-08-19T06:12:44;21.20;99.90
25320;DHT22;13256;49.012;8.610;2022-08-19T06:15:15;21.20;99.90
25320;DHT22;13256;49.012;8.610;2022-08-19T06:17:42;21.20;99.90
25320;DHT22;13256;49.012;8.610;2022-08-19T06:20:16;21.30;99.90
25320;DHT22;13256;49.012;8.610;2022-08-19T06:23:01;21.30;99.90
25320;DHT22;13256;49.012;8.610;2022-08-19T06:25:35;21.30;99.90
25320;DHT22;13256;49.012;8.610;2022-08-19T06:28:06;21.40;99.90
25320;DHT22;13256;49.012;8.610;2022-08-19T06:31:28;21.50;99.90
25320;DHT22;13256;49.012;8.610;2022-08-19T06:33:55;21.60;99.90
25320;DHT22;13256;49.012;8.610;2022-08-19T06:36:24;21.60;99.90
25320;DHT22;13256;49.012;8.610;2022-08-19T06:39:34;21.60;99.90
25320;DHT22;13256;49.012;8.610;2022-08-19T06:42:04;21.70;99.90
25320;DHT22;13256;49.012;8.610;2022-08-19T06:45:01;21.70;99.90
25320;DHT22;13256;49.012;8.610;2022-08-19T06:48:04;21.70;99.90
25320;DHT22;13256;49.012;8.610;2022-08-19T06:50:30;21.80;99.90
25320;DHT22;13256;49.012;8.610;2022-08-19T06:53:05;21.80;99.90
25320;DHT22;13256;49.012;8.610;2022-08-19T06:55:34;21.80;99.90
25320;DHT22;13256;49.012;8.610;2022-08-19T06:58:03;21.90;99.90
25320;DHT22;13256;49.012;8.610;2022-08-19T07:00:33;21.90;99.90
25320;DHT22;13256;49.012;8.610;2022-08-19T07:03:03;22.00;99.90
25320;DHT22;13256;49.012;8.610;2022-08-19T07:05:41;22.10;99.90
25320;DHT22;13256;49.012;8.610;2022-08-19T07:08:13;22.10;99.90
25320;DHT22;13256;49.012;8.610;2022-08-19T07:10:43;22.10;99.90
25320;DHT22;13256;49.012;8.610;2022-08-19T07:13:10;22.10;99.90
25320;DHT22;13256;49.012;8.610;2022-08-19T07:15:37;22.20;99.90
25320;DHT22;13256;49.012;8.610;2022-08-19T07:18:06;22.30;99.90
25320;DHT22;13256;49.012;8.610;2022-08-19T07:20:33;22.30;99.90
25320;DHT22;13256;49.012;8.610;2022-08-19T07:23:04;22.40;99.90
25320;DHT22;13256;49.012;8.610;2022-08-19T07:25:36;22.40;99.90
25320;DHT22;13256;49.012;8.610;2022-08-19T07:28:04;22.50;99.90
25320;DHT22;13256;49.012;8.610;2022-08-19T07:33:51;22.70;99.90
25320;DHT22;13256;49.012;8.610;2022-08-19T07:36:24;22.80;99.90
25320;DHT22;13256;49.012;8.610;2022-08-19T07:39:21;22.90;99.90
25320;DHT22;13256;49.012;8.610;2022-08-19T07:41:50;22.90;99.90
25320;DHT22;13256;49.012;8.610;2022-08-19T07:44:18;22.90;99.90
25320;DHT22;13256;49.012;8.610;2022-08-19T07:46:47;22.90;99.90
25320;DHT22;13256;49.012;8.610;2022-08-19T07:49:20;22.80;99.90
25320;DHT22;13256;49.012;8.610;2022-08-19T07:51:53;22.90;99.90
25320;DHT22;13256;49.012;8.610;2022-08-19T07:54:24;22.90;99.90
25320;DHT22;13256;49.012;8.610;2022-08-19T07:56:54;22.90;99.90
25320;DHT22;13256;49.012;8.610;2022-08-19T07:59:26;23.00;99.90
25320;DHT22;13256;49.012;8.610;2022-08-19T08:01:53;23.10;99.90
25320;DHT22;13256;49.012;8.610;2022-08-19T08:04:20;23.20;99.90
25320;DHT22;13256;49.012;8.610;2022-08-19T08:07:07;23.30;99.90
25320;DHT22;13256;49.012;8.610;2022-08-19T08:09:58;23.50;99.90
25320;DHT22;13256;49.012;8.610;2022-08-19T08:12:37;23.60;99.90
25320;DHT22;13256;49.012;8.610;2022-08-19T08:15:14;23.70;99.90
25320;DHT22;13256;49.012;8.610;2022-08-19T08:17:43;23.80;99.90
25320;DHT22;13256;49.012;8.610;2022-08-19T08:20:20;23.80;99.90
25320;DHT22;13256;49.012;8.610;2022-08-19T08:22:50;23.90;99.90
25320;DHT22;13256;49.012;8.610;2022-08-19T08:25:40;24.00;99.90
25320;DHT22;13256;49.012;8.610;2022-08-19T08:28:07;24.20;99.90
25320;DHT22;13256;49.012;8.610;2022-08-19T08:30:37;24.40;99.90
25320;DHT22;13256;49.012;8.610;2022-08-19T08:33:18;24.60;99.90
25320;DHT22;13256;49.012;8.610;2022-08-19T08:36:04;24.70;99.90
25320;DHT22;13256;49.012;8.610;2022-08-19T08:38:42;24.80;99.90
25320;DHT22;13256;49.012;8.610;2022-08-19T08:42:07;24.90;99.90
25320;DHT22;13256;49.012;8.610;2022-08-19T08:47:09;25.10;99.90
25320;DHT22;13256;49.012;8.610;2022-08-19T08:52:20;25.20;99.90
25320;DHT22;13256;49.012;8.610;2022-08-19T08:54:55;25.20;99.90
25320;DHT22;13256;49.012;8.610;2022-08-19T08:58:25;25.30;99.90
25320;DHT22;13256;49.012;8.610;2022-08-19T09:00:32;25.50;99.90
25320;DHT22;13256;49.012;8.610;2022-08-19T09:03:02;25.80;99.90
25320;DHT22;13256;49.012;8.610;2022-08-19T09:05:46;26.10;99.90
25320;DHT22;13256;49.012;8.610;2022-08-19T09:17:12;26.80;99.90
25320;DHT22;13256;49.012;8.610;2022-08-19T09:19:59;27.00;99.90
25320;DHT22;13256;49.012;8.610;2022-08-19T09:22:54;27.20;99.90
25320;DHT22;13256;49.012;8.610;2022-08-19T09:25:26;27.40;99.90
25320;DHT22;13256;49.012;8.610;2022-08-19T09:27:56;27.30;99.90
25320;DHT22;13256;49.012;8.610;2022-08-19T09:33:35;27.00;99.90
25320;DHT22;13256;49.012;8.610;2022-08-19T09:36:07;26.90;99.90
25320;DHT22;13256;49.012;8.610;2022-08-19T09:38:36;26.90;99.90
25320;DHT22;13256;49.012;8.610;2022-08-19T09:41:16;27.00;99.90
25320;DHT22;13256;49.012;8.610;2022-08-19T09:43:49;27.00;99.90
25320;DHT22;13256;49.012;8.610;2022-08-19T09:46:44;27.10;99.90
25320;DHT22;13256;49.012;8.610;2022-08-19T09:49:15;27.20;99.90
25320;DHT22;13256;49.012;8.610;2022-08-19T09:51:49;27.20;99.90
25320;DHT22;13256;49.012;8.610;2022-08-19T09:54:18;27.20;99.90
25320;DHT22;13256;49.012;8.610;2022-08-19T09:56:54;27.40;99.80
25320;DHT22;13256;49.012;8.610;2022-08-19T09:59:21;27.70;99.40
25320;DHT22;13256;49.012;8.610;2022-08-19T10:01:48;27.90;99.10
25320;DHT22;13256;49.012;8.610;2022-08-19T10:04:15;28.00;99.00
25320;DHT22;13256;49.012;8.610;2022-08-19T10:06:49;28.10;98.90
25320;DHT22;13256;49.012;8.610;2022-08-19T10:09:45;28.10;98.60
25320;DHT22;13256;49.012;8.610;2022-08-19T10:12:15;28.10;97.80
25320;DHT22;13256;49.012;8.610;2022-08-19T10:14:48;28.10;98.40
25320;DHT22;13256;49.012;8.610;2022-08-19T10:17:17;28.20;97.90
25320;DHT22;13256;49.012;8.610;2022-08-19T10:19:48;28.20;97.70
25320;DHT22;13256;49.012;8.610;2022-08-19T10:22:22;27.90;97.30
25320;DHT22;13256;49.012;8.610;2022-08-19T10:24:53;27.70;96.90
25320;DHT22;13256;49.012;8.610;2022-08-19T10:27:26;27.70;97.60
25320;DHT22;13256;49.012;8.610;2022-08-19T10:29:59;27.70;97.80
25320;DHT22;13256;49.012;8.610;2022-08-19T10:32:27;27.70;97.60
25320;DHT22;13256;49.012;8.610;2022-08-19T10:35:01;27.70;96.90
25320;DHT22;13256;49.012;8.610;2022-08-19T10:37:36;27.80;96.80
25320;DHT22;13256;49.012;8.610;2022-08-19T10:40:19;28.10;97.00
25320;DHT22;13256;49.012;8.610;2022-08-19T10:43:16;28.20;95.90
25320;DHT22;13256;49.012;8.610;2022-08-19T10:45:51;28.30;95.90
25320;DHT22;13256;49.012;8.610;2022-08-19T10:51:17;28.30;95.60
25320;DHT22;13256;49.012;8.610;2022-08-19T10:56:59;28.10;94.80
25320;DHT22;13256;49.012;8.610;2022-08-19T10:59:28;28.30;95.00
25320;DHT22;13256;49.012;8.610;2022-08-19T11:05:11;29.10;93.70
25320;DHT22;13256;49.012;8.610;2022-08-19T11:08:04;29.30;94.20
25320;DHT22;13256;49.012;8.610;2022-08-19T11:10:52;29.30;93.20
25320;DHT22;13256;49.012;8.610;2022-08-19T11:13:21;29.50;92.50
25320;DHT22;13256;49.012;8.610;2022-08-19T11:18:39;30.00;90.90
25320;DHT22;13256;49.012;8.610;2022-08-19T11:21:19;30.40;90.50
25320;DHT22;13256;49.012;8.610;2022-08-19T11:23:51;30.50;90.10
25320;DHT22;13256;49.012;8.610;2022-08-19T11:26:22;30.50;90.20
25320;DHT22;13256;49.012;8.610;2022-08-19T11:28:49;30.50;89.60
25320;DHT22;13256;49.012;8.610;2022-08-19T11:31:26;30.40;89.50
25320;DHT22;13256;49.012;8.610;2022-08-19T11:33:57;30.10;88.90
25320;DHT22;13256;49.012;8.610;2022-08-19T11:36:29;30.10;88.70
25320;DHT22;13256;49.012;8.610;2022-08-19T11:39:01;30.00;87.50
25320;DHT22;13256;49.012;8.610;2022-08-19T11:44:20;29.80;88.30
25320;DHT22;13256;49.012;8.610;2022-08-19T11:46:47;29.80;88.10
25320;DHT22;13256;49.012;8.610;2022-08-19T11:49:15;29.90;87.80
25320;DHT22;13256;49.012;8.610;2022-08-19T11:51:42;29.90;87.60
25320;DHT22;13256;49.012;8.610;2022-08-19T11:54:10;30.00;86.50
25320;DHT22;13256;49.012;8.610;2022-08-19T11:56:38;30.10;87.90
25320;DHT22;13256;49.012;8.610;2022-08-19T11:59:05;30.40;86.60
25320;DHT22;13256;49.012;8.610;2022-08-19T12:01:40;30.50;84.50
25320;DHT22;13256;49.012;8.610;2022-08-19T12:04:10;30.60;81.60
25320;DHT22;13256;49.012;8.610;2022-08-19T12:06:40;30.40;81.90
25320;DHT22;13256;49.012;8.610;2022-08-19T12:09:10;30.20;82.10
25320;DHT22;13256;49.012;8.610;2022-08-19T12:11:40;30.20;79.10
25320;DHT22;13256;49.012;8.610;2022-08-19T12:14:11;30.30;79.30
25320;DHT22;13256;49.012;8.610;2022-08-19T12:16:45;30.50;78.10
25320;DHT22;13256;49.012;8.610;2022-08-19T12:22:27;31.00;78.40
25320;DHT22;13256;49.012;8.610;2022-08-19T12:30:30;30.80;79.00
25320;DHT22;13256;49.012;8.610;2022-08-19T12:33:04;30.60;79.80
25320;DHT22;13256;49.012;8.610;2022-08-19T12:35:31;30.50;78.80
25320;DHT22;13256;49.012;8.610;2022-08-19T12:37:58;30.50;79.30
25320;DHT22;13256;49.012;8.610;2022-08-19T12:45:49;30.10;78.80
25320;DHT22;13256;49.012;8.610;2022-08-19T12:48:17;30.00;78.50
25320;DHT22;13256;49.012;8.610;2022-08-19T12:51:11;30.00;79.80
25320;DHT22;13256;49.012;8.610;2022-08-19T12:53:39;30.10;80.30
25320;DHT22;13256;49.012;8.610;2022-08-19T12:56:09;30.30;79.40
25320;DHT22;13256;49.012;8.610;2022-08-19T12:58:39;30.40;79.50
25320;DHT22;13256;49.012;8.610;2022-08-19T13:01:16;30.40;79.70
25320;DHT22;13256;49.012;8.610;2022-08-19T13:09:41;29.50;81.00
25320;DHT22;13256;49.012;8.610;2022-08-19T13:15:05;29.20;82.00
25320;DHT22;13256;49.012;8.610;2022-08-19T13:17:38;29.20;81.60
25320;DHT22;13256;49.012;8.610;2022-08-19T13:36:36;29.20;79.10
25320;DHT22;13256;49.012;8.610;2022-08-19T13:39:06;29.00;79.80
25320;DHT22;13256;49.012;8.610;2022-08-19T13:41:40;28.90;79.70
25320;DHT22;13256;49.012;8.610;2022-08-19T13:44:12;28.70;80.50
25320;DHT22;13256;49.012;8.610;2022-08-19T13:46:42;28.50;80.20
25320;DHT22;13256;49.012;8.610;2022-08-19T13:49:12;28.40;79.80
25320;DHT22;13256;49.012;8.610;2022-08-19T13:51:42;28.40;80.80
25320;DHT22;13256;49.012;8.610;2022-08-19T13:54:11;28.30;80.80
25320;DHT22;13256;49.012;8.610;2022-08-19T13:56:44;28.30;80.90
25320;DHT22;13256;49.012;8.610;2022-08-19T13:59:16;28.30;80.50
25320;DHT22;13256;49.012;8.610;2022-08-19T14:01:44;28.30;80.60
25320;DHT22;13256;49.012;8.610;2022-08-19T14:04:11;28.30;81.40
25320;DHT22;13256;49.012;8.610;2022-08-19T14:06:38;28.40;80.60
25320;DHT22;13256;49.012;8.610;2022-08-19T14:09:17;28.40;80.60
25320;DHT22;13256;49.012;8.610;2022-08-19T14:18:00;28.80;80.10
25320;DHT22;13256;49.012;8.610;2022-08-19T14:20:29;28.90;79.30
25320;DHT22;13256;49.012;8.610;2022-08-19T14:22:58;28.80;79.40
25320;DHT22;13256;49.012;8.610;2022-08-19T14:25:29;29.10;80.30
25320;DHT22;13256;49.012;8.610;2022-08-19T14:27:57;29.30;77.90
25320;DHT22;13256;49.012;8.610;2022-08-19T14:30:32;29.50;78.10
25320;DHT22;13256;49.012;8.610;2022-08-19T14:35:40;29.60;74.20
25320;DHT22;13256;49.012;8.610;2022-08-19T14:44:22;29.40;72.80
25320;DHT22;13256;49.012;8.610;2022-08-19T14:46:50;29.30;74.70
25320;DHT22;13256;49.012;8.610;2022-08-19T14:49:20;29.30;74.80
25320;DHT22;13256;49.012;8.610;2022-08-19T14:52:04;29.20;76.10
25320;DHT22;13256;49.012;8.610;2022-08-19T14:55:17;29.30;76.40
25320;DHT22;13256;49.012;8.610;2022-08-19T15:00:36;29.40;72.70
25320;DHT22;13256;49.012;8.610;2022-08-19T15:03:05;29.40;74.40
25320;DHT22;13256;49.012;8.610;2022-08-19T15:08:06;29.50;74.80
25320;DHT22;13256;49.012;8.610;2022-08-19T15:17:04;29.50;71.80
25320;DHT22;13256;49.012;8.610;2022-08-19T15:19:32;29.60;71.60
25320;DHT22;13256;49.012;8.610;2022-08-19T15:22:04;29.60;71.10
25320;DHT22;13256;49.012;8.610;2022-08-19T15:24:35;29.70;70.50
25320;DHT22;13256;49.012;8.610;2022-08-19T15:29:48;29.70;70.00
25320;DHT22;13256;49.012;8.610;2022-08-19T15:32:22;29.70;71.10
25320;DHT22;13256;49.012;8.610;2022-08-19T15:34:49;29.60;71.10
25320;DHT22;13256;49.012;8.610;2022-08-19T15:43:09;29.60;70.00
25320;DHT22;13256;49.012;8.610;2022-08-19T15:54:48;29.30;70.70
25320;DHT22;13256;49.012;8.610;2022-08-19T16:06:25;29.00;70.70
25320;DHT22;13256;49.012;8.610;2022-08-19T16:09:00;28.90;70.80
25320;DHT22;13256;49.012;8.610;2022-08-19T16:11:32;28.90;71.10
25320;DHT22;13256;49.012;8.610;2022-08-19T16:14:14;28.80;70.90
25320;DHT22;13256;49.012;8.610;2022-08-19T16:16:53;28.80;71.30
25320;DHT22;13256;49.012;8.610;2022-08-19T16:19:22;28.80;71.40
25320;DHT22;13256;49.012;8.610;2022-08-19T16:24:44;28.90;72.00
25320;DHT22;13256;49.012;8.610;2022-08-19T16:30:37;28.80;72.10
25320;DHT22;13256;49.012;8.610;2022-08-19T16:33:05;28.80;71.70
25320;DHT22;13256;49.012;8.610;2022-08-19T16:35:32;28.80;72.10
25320;DHT22;13256;49.012;8.610;2022-08-19T16:37:59;28.70;72.30
25320;DHT22;13256;49.012;8.610;2022-08-19T16:40:28;28.70;72.80
25320;DHT22;13256;49.012;8.610;2022-08-19T16:42:57;28.60;73.40
25320;DHT22;13256;49.012;8.610;2022-08-19T16:45:24;28.60;72.50
25320;DHT22;13256;49.012;8.610;2022-08-19T16:47:51;28.60;73.50
25320;DHT22;13256;49.012;8.610;2022-08-19T16:50:17;28.50;72.90
25320;DHT22;13256;49.012;8.610;2022-08-19T16:53:08;28.50;74.40
25320;DHT22;13256;49.012;8.610;2022-08-19T16:55:37;28.50;73.80
25320;DHT22;13256;49.012;8.610;2022-08-19T16:58:08;28.50;73.10
25320;DHT22;13256;49.012;8.610;2022-08-19T17:03:33;28.60;73.20
25320;DHT22;13256;49.012;8.610;2022-08-19T17:06:14;28.70;73.70
25320;DHT22;13256;49.012;8.610;2022-08-19T17:08:50;28.70;73.20
25320;DHT22;13256;49.012;8.610;2022-08-19T17:11:17;28.70;73.90
25320;DHT22;13256;49.012;8.610;2022-08-19T17:13:47;28.70;73.80
25320;DHT22;13256;49.012;8.610;2022-08-19T17:19:03;28.70;73.70
25320;DHT22;13256;49.012;8.610;2022-08-19T17:27:12;28.60;74.30
25320;DHT22;13256;49.012;8.610;2022-08-19T17:29:41;28.60;74.50
25320;DHT22;13256;49.012;8.610;2022-08-19T17:32:17;28.50;74.70
25320;DHT22;13256;49.012;8.610;2022-08-19T17:34:56;28.40;73.10
25320;DHT22;13256;49.012;8.610;2022-08-19T17:37:28;28.20;73.50
25320;DHT22;13256;49.012;8.610;2022-08-19T17:40:04;28.10;74.90
25320;DHT22;13256;49.012;8.610;2022-08-19T17:42:34;27.90;74.60
25320;DHT22;13256;49.012;8.610;2022-08-19T17:45:04;27.80;75.70
25320;DHT22;13256;49.012;8.610;2022-08-19T17:47:33;27.70;75.90
25320;DHT22;13256;49.012;8.610;2022-08-19T17:50:02;27.70;76.10
25320;DHT22;13256;49.012;8.610;2022-08-19T17:52:32;27.60;76.50
25320;DHT22;13256;49.012;8.610;2022-08-19T17:55:01;27.60;77.10
25320;DHT22;13256;49.012;8.610;2022-08-19T17:57:29;27.50;76.90
25320;DHT22;13256;49.012;8.610;2022-08-19T17:59:58;27.40;77.10
25320;DHT22;13256;49.012;8.610;2022-08-19T18:02:26;27.30;77.20
25320;DHT22;13256;49.012;8.610;2022-08-19T18:04:59;27.30;77.70
25320;DHT22;13256;49.012;8.610;2022-08-19T18:07:31;27.10;77.30
25320;DHT22;13256;49.012;8.610;2022-08-19T18:10:03;27.00;77.60
25320;DHT22;13256;49.012;8.610;2022-08-19T18:12:41;26.90;77.30
25320;DHT22;13256;49.012;8.610;2022-08-19T18:15:15;26.90;77.70
25320;DHT22;13256;49.012;8.610;2022-08-19T18:17:43;26.70;78.40
25320;DHT22;13256;49.012;8.610;2022-08-19T18:20:14;26.70;79.30
25320;DHT22;13256;49.012;8.610;2022-08-19T18:22:44;26.50;79.50
25320;DHT22;13256;49.012;8.610;2022-08-19T18:25:20;26.50;80.10
25320;DHT22;13256;49.012;8.610;2022-08-19T18:27:58;26.40;80.60
25320;DHT22;13256;49.012;8.610;2022-08-19T18:34:01;26.30;81.80
25320;DHT22;13256;49.012;8.610;2022-08-19T18:36:28;26.20;82.20
25320;DHT22;13256;49.012;8.610;2022-08-19T18:39:30;26.10;82.70
25320;DHT22;13256;49.012;8.610;2022-08-19T18:42:20;26.00;83.30
25320;DHT22;13256;49.012;8.610;2022-08-19T18:45:08;25.90;83.70
25320;DHT22;13256;49.012;8.610;2022-08-19T18:48:01;25.90;83.90
25320;DHT22;13256;49.012;8.610;2022-08-19T18:50:59;25.80;84.20
25320;DHT22;13256;49.012;8.610;2022-08-19T18:53:31;25.70;84.50
25320;DHT22;13256;49.012;8.610;2022-08-19T18:56:00;25.70;85.10
25320;DHT22;13256;49.012;8.610;2022-08-19T18:58:31;25.60;85.50
25320;DHT22;13256;49.012;8.610;2022-08-19T19:01:20;25.50;85.80
25320;DHT22;13256;49.012;8.610;2022-08-19T19:03:53;25.60;86.40
25320;DHT22;13256;49.012;8.610;2022-08-19T19:06:26;25.50;87.10
25320;DHT22;13256;49.012;8.610;2022-08-19T19:08:56;25.60;87.60
25320;DHT22;13256;49.012;8.610;2022-08-19T19:11:31;25.50;88.80
25320;DHT22;13256;49.012;8.610;2022-08-19T19:14:00;25.50;89.40
25320;DHT22;13256;49.012;8.610;2022-08-19T19:16:29;25.30;90.60
25320;DHT22;13256;49.012;8.610;2022-08-19T19:19:06;25.30;91.20
25320;DHT22;13256;49.012;8.610;2022-08-19T19:21:35;25.20;91.40
25320;DHT22;13256;49.012;8.610;2022-08-19T19:24:05;25.10;91.70
25320;DHT22;13256;49.012;8.610;2022-08-19T19:26:37;25.10;91.90
25320;DHT22;13256;49.012;8.610;2022-08-19T19:29:05;25.00;92.00
25320;DHT22;13256;49.012;8.610;2022-08-19T19:31:32;25.00;90.50
25320;DHT22;13256;49.012;8.610;2022-08-19T19:33:59;24.90;90.50
25320;DHT22;13256;49.012;8.610;2022-08-19T19:36:26;24.90;89.40
25320;DHT22;13256;49.012;8.610;2022-08-19T19:38:55;24.90;89.80
25320;DHT22;13256;49.012;8.610;2022-08-19T19:41:23;24.80;88.70
25320;DHT22;13256;49.012;8.610;2022-08-19T19:43:54;24.80;88.70
25320;DHT22;13256;49.012;8.610;2022-08-19T19:46:44;24.80;89.10
25320;DHT22;13256;49.012;8.610;2022-08-19T19:49:15;24.70;88.00
25320;DHT22;13256;49.012;8.610;2022-08-19T19:51:47;24.70;88.10
25320;DHT22;13256;49.012;8.610;2022-08-19T19:54:16;24.70;87.70
25320;DHT22;13256;49.012;8.610;2022-08-19T19:56:51;24.60;88.20
25320;DHT22;13256;49.012;8.610;2022-08-19T19:59:19;24.60;87.70
25320;DHT22;13256;49.012;8.610;2022-08-19T20:01:48;24.70;87.40
25320;DHT22;13256;49.012;8.610;2022-08-19T20:04:20;24.60;87.40
25320;DHT22;13256;49.012;8.610;2022-08-19T20:06:49;24.60;87.90
25320;DHT22;13256;49.012;8.610;2022-08-19T20:09:17;24.60;88.10
25320;DHT22;13256;49.012;8.610;2022-08-19T20:11:51;24.50;88.10
25320;DHT22;13256;49.012;8.610;2022-08-19T20:14:30;24.50;88.60
25320;DHT22;13256;49.012;8.610;2022-08-19T20:17:02;24.40;88.80
25320;DHT22;13256;49.012;8.610;2022-08-19T20:19:31;24.40;89.20
25320;DHT22;13256;49.012;8.610;2022-08-19T20:21:59;24.30;89.50
25320;DHT22;13256;49.012;8.610;2022-08-19T20:24:30;24.30;89.70